Time;durP1;ratioP1;P1;durP2;ratioP2;P2;SDS_P1;SDS_P2;PMS_P1;PMS_P2;Temp;Humidity;BMP_temperature;BMP_pressure;BME280_temperature;BME280_humidity;BME280_pressure;Samples;Min_cycle;Max_cycle;Signal;HPM_P1;HPM_P2
2022/12/09 00:00:18;;;;;;;43.60;15.98;;;-0.80;99.90;;;;;;6188330;23;20426;-80
2022/12/09 00:02:48;;;;;;;48.25;16.70;;;;;;;;;;6188087;23;20024;-80
2022/12/09 00:05:17;;;;;;;40.75;16.48;;;-3.30;99.90;;;;;;6162054;23;20315;-80
2022/12/09 00:07:44;;;;;;;;;;;-1.80;99.90;;;;;;6163302;23;20028;-80
2022/12/09 00:10:15;;;;;;;44.85;16.58;;;;;;;;;;6161334;23;19916;-81
2022/12/09 00:12:42;;;;;;;45.72;16.42;;;-3.30;99.90;;;;;;6162128;23;20025;-80
2022/12/09 00:15:10;;;;;;;40.38;15.40;;;-1.60;99.90;;;;;;6138244;23;20009;-82
2022/12/09 00:17:38;;;;;;;47.45;16.05;;;;;;;;;;6171521;23;20017;-83
2022/12/09 00:20:08;;;;;;;;;;;-3.30;99.90;;;;;;6138315;23;20021;-79
2022/12/09 00:22:37;;;;;;;47.08;14.85;;;-3.40;99.90;;;;;;6198364;23;20225;-81
2022/12/09 00:25:05;;;;;;;42.03;15.68;;;-1.70;99.90;;;;;;6161576;23;20032;-81
2022/12/09 00:27:33;;;;;;;39.45;15.93;;;-3.40;99.90;;;;;;6172803;23;20017;-81
2022/12/09 00:30:01;;;;;;;49.38;16.17;;;-2.50;99.90;;;;;;6186271;23;20013;-82
2022/12/09 00:32:29;;;;;;;48.40;15.32;;;-3.70;99.90;;;;;;6162066;23;20013;-80
2022/12/09 00:34:57;;;;;;;;;;;-2.00;99.90;;;;;;6188576;23;20013;-81
2022/12/09 00:37:25;;;;;;;;;;;-3.70;99.90;;;;;;6171860;23;20302;-80
2022/12/09 00:39:52;;;;;;;42.13;14.02;;;-3.60;99.90;;;;;;6138022;23;19926;-81
2022/12/09 00:42:26;;;;;;;38.85;14.65;;;-3.50;99.90;;;;;;6138491;23;20028;-83
2022/12/09 00:44:58;;;;;;;44.88;15.55;;;-1.90;99.90;;;;;;6136003;23;20020;-80
2022/12/09 00:47:26;;;;;;;42.60;15.50;;;-1.00;99.90;;;;;;6172198;23;20039;-82
2022/12/09 00:49:55;;;;;;;43.45;16.02;;;-1.40;99.90;;;;;;6135972;23;20028;-83
2022/12/09 00:52:23;;;;;;;42.45;15.85;;;-1.50;99.90;;;;;;6162279;23;20025;-81
2022/12/09 00:54:52;;;;;;;43.85;16.00;;;-1.70;99.90;;;;;;6187929;23;20013;-83
2022/12/09 00:57:20;;;;;;;40.80;16.63;;;-2.00;99.90;;;;;;6160931;23;20040;-82
2022/12/09 00:59:50;;;;;;;40.53;16.52;;;-3.90;99.90;;;;;;6187690;23;20314;-83
2022/12/09 01:02:18;;;;;;;46.28;16.05;;;-1.20;99.90;;;;;;6197931;23;20013;-81
2022/12/09 01:04:50;;;;;;;46.60;17.65;;;-1.50;99.90;;;;;;6186592;23;20017;-80
2022/12/09 01:07:21;;;;;;;44.88;17.17;;;;;;;;;;6198147;23;20028;-84
2022/12/09 01:09:48;;;;;;;;;;;-3.10;99.90;;;;;;6135764;23;20420;-82
2022/12/09 01:12:19;;;;;;;42.13;16.27;;;-4.80;99.90;;;;;;6137072;23;19927;-80
2022/12/09 01:14:47;;;;;;;41.40;16.55;;;-1.40;99.90;;;;;;6162074;23;20315;-84
2022/12/09 01:17:14;;;;;;;50.05;18.10;;;-1.30;99.90;;;;;;6135482;23;20419;-82
2022/12/09 01:19:44;;;;;;;54.22;17.80;;;-0.80;99.90;;;;;;6137764;23;20017;-82
2022/12/09 01:22:12;;;;;;;44.33;17.23;;;-0.80;99.90;;;;;;6161796;23;20330;-80
2022/12/09 01:24:39;;;;;;;37.67;15.73;;;-0.80;99.90;;;;;;6160529;23;20426;-83
2022/12/09 01:27:07;;;;;;;40.97;16.17;;;-2.40;99.90;;;;;;6171938;23;20020;-81
2022/12/09 01:29:35;;;;;;;38.42;15.73;;;-1.90;99.90;;;;;;6135621;23;20027;-82
2022/12/09 01:32:04;;;;;;;38.75;15.13;;;-2.60;99.90;;;;;;6137193;23;20440;-79
2022/12/09 01:34:32;;;;;;;33.17;14.25;;;-2.60;99.90;;;;;;6112942;23;20017;-82
2022/12/09 01:36:59;;;;;;;40.63;14.38;;;-1.60;99.90;;;;;;6136080;23;20300;-84
2022/12/09 01:39:28;;;;;;;38.13;14.25;;;-3.50;99.90;;;;;;6161968;23;20017;-81
2022/12/09 01:41:56;;;;;;;39.10;15.10;;;;;;;;;;6161625;23;20017;-83
2022/12/09 01:44:25;;;;;;;33.10;14.52;;;-2.90;99.90;;;;;;6135652;23;20017;-83
2022/12/09 01:46:56;;;;;;;47.95;15.85;;;-2.30;99.90;;;;;;6161708;23;20036;-81
2022/12/09 01:49:45;;;;;;;41.25;15.02;;;-1.10;99.90;;;;;;6162524;23;20032;-84
2022/12/09 01:52:19;;;;;;;41.92;14.88;;;-3.20;99.90;;;;;;6171974;23;20028;-81
2022/12/09 01:54:51;;;;;;;34.42;14.25;;;-3.10;99.90;;;;;;6137046;23;20021;-81
2022/12/09 01:57:20;;;;;;;40.42;15.05;;;;;;;;;;6160399;23;20013;-82
2022/12/09 01:59:48;;;;;;;41.03;15.20;;;-3.20;99.90;;;;;;6137133;23;20028;-83
2022/12/09 02:02:18;;;;;;;34.67;15.55;;;-3.30;99.90;;;;;;6187807;23;20020;-82
2022/12/09 02:04:48;;;;;;;32.30;14.63;;;-0.80;99.90;;;;;;6135530;23;20017;-83
2022/12/09 02:07:18;;;;;;;40.00;14.85;;;-1.20;99.90;;;;;;6171989;23;20426;-83
2022/12/09 02:09:51;;;;;;;40.63;14.85;;;-1.80;99.90;;;;;;6135375;23;20070;-81
2022/12/09 02:12:40;;;;;;;34.38;14.18;;;-2.10;99.90;;;;;;6171803;23;20017;-83
2022/12/09 02:15:11;;;;;;;;;;;-3.30;99.90;;;;;;6172119;23;20310;-84
2022/12/09 02:17:54;;;;;;;34.53;13.90;;;-3.10;99.90;;;;;;6135383;23;19916;-83
2022/12/09 02:20:29;;;;;;;38.60;13.30;;;-1.00;99.90;;;;;;6137426;23;20063;-84
2022/12/09 02:23:19;;;;;;;37.67;14.63;;;-3.40;99.90;;;;;;6170559;23;20016;-82
2022/12/09 02:25:51;;;;;;;35.63;14.82;;;-3.50;99.90;;;;;;6161447;23;20036;-81
2022/12/09 02:28:23;;;;;;;38.35;14.32;;;-4.10;99.90;;;;;;6162744;23;20013;-82
2022/12/09 02:31:27;;;;;;;37.67;14.95;;;-1.30;99.90;;;;;;6137873;23;20013;-82
2022/12/09 02:34:18;;;;;;;39.53;14.77;;;-3.50;99.90;;;;;;6138558;23;20023;-81
2022/12/09 02:37:14;;;;;;;39.00;14.50;;;-3.80;99.90;;;;;;6172310;23;20439;-80
2022/12/09 02:40:00;;;;;;;41.53;14.02;;;-3.50;99.90;;;;;;6115732;23;20027;-85
2022/12/09 02:42:34;;;;;;;37.25;14.05;;;-4.80;99.90;;;;;;6173571;23;20009;-82
2022/12/09 02:45:06;;;;;;;36.75;13.75;;;-3.70;99.90;;;;;;6171965;23;20013;-83
2022/12/09 02:47:41;;;;;;;35.35;15.10;;;-3.70;99.90;;;;;;6173741;23;20017;-81
2022/12/09 02:50:15;;;;;;;46.20;15.68;;;-1.90;99.90;;;;;;6172192;23;20017;-81
2022/12/09 02:52:45;;;;;;;45.42;15.70;;;-2.00;99.90;;;;;;6173245;23;20311;-83
2022/12/09 02:55:15;;;;;;;43.03;16.73;;;-3.30;99.90;;;;;;6163131;23;20017;-83
2022/12/09 02:57:43;;;;;;;44.30;16.92;;;-3.70;99.90;;;;;;6172004;23;20415;-81
2022/12/09 03:00:14;;;;;;;41.58;17.10;;;-1.10;99.90;;;;;;6114099;23;20033;-83
2022/12/09 03:02:48;;;;;;;42.50;16.27;;;-2.80;99.90;;;;;;6133855;23;20014;-82
2022/12/09 03:05:26;;;;;;;42.67;16.15;;;-0.60;99.90;;;;;;6169211;23;20315;-84
2022/12/09 03:08:01;;;;;;;43.20;16.65;;;-2.80;99.90;;;;;;6110010;23;20021;-85
2022/12/09 03:11:02;;;;;;;38.75;15.90;;;-2.60;99.90;;;;;;6118247;23;20014;-85
2022/12/09 03:14:05;;;;;;;35.72;16.35;;;-2.30;99.90;;;;;;6133420;23;20018;-84
2022/12/09 03:16:57;;;;;;;39.92;16.23;;;-2.50;99.90;;;;;;6157762;23;20014;-84
2022/12/09 03:19:43;;;;;;;43.97;16.50;;;-1.20;99.90;;;;;;6143653;23;20009;-82
2022/12/09 03:22:15;;;;;;;38.17;15.75;;;-2.40;99.90;;;;;;6168979;23;20013;-82
2022/12/09 03:24:58;;;;;;;39.30;16.90;;;-0.50;99.90;;;;;;6132431;23;20318;-81
2022/12/09 03:27:45;;;;;;;43.50;16.45;;;0.00;99.90;;;;;;6133800;23;20439;-81
2022/12/09 03:30:14;;;;;;;45.35;18.13;;;0.30;99.90;;;;;;6142043;23;20024;-82
2022/12/09 03:32:45;;;;;;;43.00;16.58;;;-1.90;99.90;;;;;;6133069;23;20423;-81
2022/12/09 03:35:46;;;;;;;47.15;16.85;;;-0.50;99.90;;;;;;6143978;23;20025;-84
2022/12/09 03:38:18;;;;;;;43.70;16.58;;;0.80;99.90;;;;;;6111512;23;20021;-82
2022/12/09 03:40:50;;;;;;;39.13;15.85;;;0.40;99.90;;;;;;6168856;23;20427;-82
2022/12/09 03:43:23;;;;;;;36.55;16.35;;;-0.70;99.90;;;;;;6142276;23;20021;-83
2022/12/09 03:45:53;;;;;;;43.95;17.50;;;0.00;99.90;;;;;;6169067;23;20024;-83
2022/12/09 03:48:22;;;;;;;42.70;17.50;;;1.60;99.90;;;;;;6109501;23;20013;-82
2022/12/09 03:51:02;;;;;;;46.28;16.95;;;-1.30;99.90;;;;;;6155252;23;20021;-83
2022/12/09 03:53:45;;;;;;;48.30;18.27;;;0.60;99.90;;;;;;6168523;23;20033;-84
2022/12/09 03:56:22;;;;;;;37.10;17.27;;;-3.50;99.90;;;;;;6167878;23;20014;-82
2022/12/09 03:58:54;;;;;;;37.08;16.75;;;0.10;99.90;;;;;;6173383;23;20013;-82
2022/12/09 04:01:25;;;;;;;40.63;16.70;;;0.80;99.90;;;;;;6188579;23;20017;-83
2022/12/09 04:03:55;;;;;;;40.95;16.73;;;0.30;99.90;;;;;;6196982;23;20017;-81
2022/12/09 04:06:24;;;;;;;43.78;16.60;;;0.80;99.90;;;;;;6148843;23;20020;-83
2022/12/09 04:08:52;;;;;;;43.22;17.33;;;-0.10;99.90;;;;;;6162580;23;20021;-82
2022/12/09 04:11:27;;;;;;;39.22;16.30;;;0.00;99.90;;;;;;6197072;23;20013;-84
2022/12/09 04:13:54;;;;;;;34.28;15.15;;;0.70;99.90;;;;;;6162484;23;20016;-83
2022/12/09 04:16:23;;;;;;;38.53;15.88;;;0.30;99.90;;;;;;6196919;23;20024;-84
2022/12/09 04:18:53;;;;;;;42.78;16.38;;;-0.10;99.90;;;;;;6162945;23;20013;-82
2022/12/09 04:21:21;;;;;;;39.13;15.73;;;1.10;99.90;;;;;;6114221;23;20296;-82
2022/12/09 04:23:49;;;;;;;36.30;16.10;;;0.60;99.90;;;;;;6160752;23;20024;-82
2022/12/09 04:26:25;;;;;;;35.75;15.90;;;0.70;99.90;;;;;;6198278;23;20017;-84
2022/12/09 04:28:53;;;;;;;41.47;17.15;;;0.90;99.90;;;;;;6172262;23;20020;-84
2022/12/09 04:31:21;;;;;;;;;;;0.30;99.90;;;;;;6136623;23;20017;-83
2022/12/09 04:33:49;;;;;;;47.22;17.05;;;-1.00;99.90;;;;;;6163057;23;20221;-82
2022/12/09 04:36:18;;;;;;;44.72;16.98;;;1.00;99.90;;;;;;6171479;23;20028;-81
2022/12/09 04:38:47;;;;;;;39.17;17.02;;;-1.60;99.90;;;;;;6162393;23;20046;-83
2022/12/09 04:41:15;;;;;;;43.72;17.38;;;0.60;99.90;;;;;;6161973;23;20067;-83
2022/12/09 04:43:48;;;;;;;38.33;17.77;;;-1.50;99.90;;;;;;6161194;23;20024;-84
2022/12/09 04:46:18;;;;;;;43.17;17.50;;;1.90;99.90;;;;;;6137986;23;20434;-82
2022/12/09 04:48:46;;;;;;;36.25;16.63;;;0.60;99.90;;;;;;6162562;23;20017;-83
2022/12/09 04:51:17;;;;;;;;;;;1.00;99.90;;;;;;6185832;23;20017;-82
2022/12/09 04:53:44;;;;;;;42.30;16.85;;;-0.50;99.90;;;;;;6161726;23;19920;-81
2022/12/09 04:56:14;;;;;;;37.50;16.92;;;1.50;99.90;;;;;;6136005;23;20461;-84
2022/12/09 04:58:45;;;;;;;40.47;16.67;;;-0.70;99.90;;;;;;6145554;23;20024;-84
2022/12/09 05:01:15;;;;;;;42.60;17.17;;;1.70;99.90;;;;;;6161715;23;20017;-81
2022/12/09 05:03:54;;;;;;;41.30;17.33;;;1.70;99.90;;;;;;6170746;23;20009;-82
2022/12/09 05:06:24;;;;;;;35.75;16.88;;;0.90;99.90;;;;;;6197795;23;20024;-84
2022/12/09 05:08:56;;;;;;;34.10;17.38;;;-0.10;99.90;;;;;;6198167;23;20313;-82
2022/12/09 05:11:25;;;;;;;36.53;17.42;;;0.70;99.90;;;;;;6171271;23;20024;-84
2022/12/09 05:14:02;;;;;;;42.70;18.85;;;1.00;99.90;;;;;;6197968;23;20309;-84
2022/12/09 05:16:30;;;;;;;;;;;0.80;99.90;;;;;;6197006;23;20016;-83
2022/12/09 05:18:58;;;;;;;;;;;-0.70;99.90;;;;;;6162098;23;19927;-83
2022/12/09 05:21:27;;;;;;;35.92;16.27;;;-0.70;99.90;;;;;;6162736;23;19923;-84
2022/12/09 05:23:55;;;;;;;44.78;16.98;;;0.80;99.90;;;;;;6136419;23;20430;-83
2022/12/09 05:26:25;;;;;;;39.28;16.85;;;1.10;99.90;;;;;;6171901;23;20020;-84
2022/12/09 05:29:04;;;;;;;39.58;18.30;;;0.30;99.90;;;;;;6174489;23;20017;-82
2022/12/09 05:31:32;;;;;;;;;;;1.20;99.90;;;;;;6136730;23;20327;-81
2022/12/09 05:34:00;;;;;;;39.17;17.38;;;-0.50;99.90;;;;;;6161807;23;19923;-83
2022/12/09 05:36:28;;;;;;;38.22;18.77;;;1.30;99.90;;;;;;6112327;23;20642;-84
2022/12/09 05:38:57;;;;;;;38.83;19.52;;;-1.10;99.90;;;;;;6161873;23;20017;-83
2022/12/09 05:41:25;;;;;;;44.42;19.80;;;1.60;99.90;;;;;;6161811;23;20017;-83
2022/12/09 05:43:55;;;;;;;40.00;18.58;;;1.30;99.90;;;;;;6186131;23;20017;-84
2022/12/09 05:46:23;;;;;;;44.38;18.80;;;1.10;99.90;;;;;;6162231;23;20017;-83
2022/12/09 05:48:51;;;;;;;45.65;18.05;;;1.50;99.90;;;;;;6137940;23;20323;-82
2022/12/09 05:51:26;;;;;;;48.97;19.83;;;1.40;99.90;;;;;;6160288;23;20032;-84
2022/12/09 05:53:54;;;;;;;39.90;18.83;;;1.30;99.90;;;;;;6161790;23;20334;-84
2022/12/09 05:56:25;;;;;;;46.97;20.15;;;-0.40;99.90;;;;;;6170236;23;20028;-82
2022/12/09 05:58:54;;;;;;;48.63;19.48;;;0.90;99.90;;;;;;6136828;23;20035;-84
2022/12/09 06:01:26;;;;;;;46.85;18.98;;;-0.40;99.90;;;;;;6173308;23;20020;-83
2022/12/09 06:04:01;;;;;;;45.95;20.30;;;0.90;99.90;;;;;;6197614;23;20438;-83
2022/12/09 06:06:36;;;;;;;47.55;20.58;;;1.40;99.90;;;;;;6161562;23;20013;-82
2022/12/09 06:09:10;;;;;;;41.97;20.40;;;1.00;99.90;;;;;;6172148;23;20021;-83
2022/12/09 06:11:39;;;;;;;48.88;21.45;;;1.40;99.90;;;;;;6146102;23;20024;-81
2022/12/09 06:14:09;;;;;;;46.78;19.77;;;-1.80;99.90;;;;;;6162062;23;20017;-83
2022/12/09 06:17:08;;;;;;;;;;;;;;;;;;;;;
2022/12/09 06:20:29;;;;;;;43.92;20.35;;;0.30;99.90;;;;;;6126248;23;20029;-83
2022/12/09 06:23:36;;;;;;;47.50;20.67;;;1.20;99.90;;;;;;6142084;23;20025;-83
2022/12/09 06:26:27;;;;;;;54.17;21.45;;;0.30;99.90;;;;;;6172914;23;20319;-81
2022/12/09 06:29:01;;;;;;;49.30;21.38;;;-0.30;99.90;;;;;;6161060;23;20013;-82
2022/12/09 06:31:36;;;;;;;47.45;21.15;;;1.20;99.90;;;;;;6135564;23;20013;-82
2022/12/09 06:34:40;;;;;;;42.30;20.48;;;0.80;99.90;;;;;;6173419;23;20016;-81
2022/12/09 06:37:20;;;;;;;45.90;19.83;;;-1.30;99.90;;;;;;6170845;23;20009;-82
2022/12/09 06:39:58;;;;;;;49.93;21.73;;;2.80;99.90;;;;;;6173654;23;20387;-82
2022/12/09 06:42:27;;;;;;;47.90;21.27;;;-0.80;99.90;;;;;;6172055;23;20637;-82
2022/12/09 06:45:00;;;;;;;43.75;21.30;;;2.10;99.90;;;;;;6145933;23;20020;-81
2022/12/09 06:48:00;;;;;;;43.70;20.58;;;2.30;99.90;;;;;;6136087;23;20326;-81
2022/12/09 06:50:30;;;;;;;47.05;20.65;;;2.80;99.90;;;;;;6160576;23;20411;-82
2022/12/09 06:53:02;;;;;;;44.58;21.23;;;-0.30;99.90;;;;;;6198137;23;20445;-81
2022/12/09 06:55:36;;;;;;;50.63;22.00;;;1.70;99.90;;;;;;6138069;23;20021;-82
2022/12/09 06:58:15;;;;;;;50.30;21.67;;;1.20;99.90;;;;;;6195740;23;20017;-81
2022/12/09 07:00:48;;;;;;;;;;;1.70;99.90;;;;;;6161866;23;20032;-81
2022/12/09 07:04:07;;;;;;;43.17;20.33;;;0.00;99.90;;;;;;6163871;23;19916;-82
2022/12/09 07:07:59;;;;;;;49.00;21.60;;;0.20;99.90;;;;;;6151813;23;20025;-83
2022/12/09 07:10:35;;;;;;;44.72;20.58;;;1.40;99.90;;;;;;6195901;23;20013;-81
2022/12/09 07:13:25;;;;;;;51.40;21.63;;;-1.00;99.90;;;;;;6171440;23;20024;-81
2022/12/09 07:16:25;;;;;;;51.00;20.85;;;2.10;99.90;;;;;;6162444;23;20021;-82
2022/12/09 07:19:34;;;;;;;51.30;21.08;;;0.00;99.90;;;;;;6174010;23;20017;-82
2022/12/09 07:22:24;;;;;;;44.00;22.00;;;-0.80;99.90;;;;;;6138372;23;20426;-82
2022/12/09 07:26:00;;;;;;;;;;;;;;;;;;;;;
2022/12/09 07:29:34;;;;;;;;;;;;;;;;;;;;;
2022/12/09 07:36:25;;;;;;;50.55;22.38;;;-0.10;99.90;;;;;;6010472;23;20357;-83
2022/12/09 07:40:30;;;;;;;55.20;21.65;;;-1.80;99.90;;;;;;5930888;24;20028;-83
2022/12/09 07:44:29;;;;;;;;;;;;;;;;;;;;;
2022/12/09 07:56:57;;;;;;;;;;;;;;;;;;;;;
2022/12/09 08:00:24;;;;;;;51.10;23.55;;;-1.10;99.90;;;;;;5923221;24;20033;-82
2022/12/09 08:08:51;;;;;;;50.25;24.10;;;0.60;99.90;;;;;;6001893;23;20031;-82
2022/12/09 08:11:42;;;;;;;56.08;26.17;;;-0.90;99.90;;;;;;6025631;23;20121;-82
2022/12/09 08:16:00;;;;;;;60.88;24.77;;;1.30;99.90;;;;;;6004405;23;20075;-81
2022/12/09 08:19:14;;;;;;;57.53;26.13;;;0.00;99.90;;;;;;6010363;23;20306;-82
2022/12/09 08:22:49;;;;;;;56.13;25.02;;;1.70;99.90;;;;;;6100463;23;20018;-78
2022/12/09 08:25:20;;;;;;;91.60;31.83;;;0.30;99.90;;;;;;6127730;23;20024;-82
2022/12/09 08:28:00;;;;;;;69.32;28.67;;;1.60;99.90;;;;;;6137853;23;20021;-81
2022/12/09 08:31:40;;;;;;;;;;;;;;;;;;;;;
2022/12/09 08:35:31;;;;;;;;;;;;;;;;;;;;;
2022/12/09 08:38:43;;;;;;;86.65;28.23;;;-1.10;99.90;;;;;;6011695;23;20351;-80
2022/12/09 08:41:43;;;;;;;75.25;26.95;;;2.30;99.90;;;;;;6020496;23;20023;-81
2022/12/09 08:44:31;;;;;;;;;;;;;;;;;;;;;
2022/12/09 08:48:39;;;;;;;75.40;28.95;;;2.00;99.90;;;;;;5924348;24;20029;-81
2022/12/09 08:52:45;;;;;;;91.05;32.78;;;2.40;99.90;;;;;;5846179;24;20018;-80
2022/12/09 08:55:54;;;;;;;100.25;32.63;;;2.70;99.90;;;;;;5890853;24;20025;-81
2022/12/09 08:59:41;;;;;;;84.88;28.90;;;2.30;99.90;;;;;;5776934;24;20104;-80
2022/12/09 09:02:32;;;;;;;79.25;31.10;;;3.10;99.90;;;;;;5795796;24;20034;-80
2022/12/09 09:05:58;;;;;;;90.10;30.80;;;-0.80;99.90;;;;;;5840785;24;20026;-80
2022/12/09 09:12:39;;;;;;;91.10;30.35;;;-0.30;99.90;;;;;;5965788;23;20456;-80
2022/12/09 09:18:59;;;;;;;93.72;31.65;;;-0.60;99.90;;;;;;6109447;23;20021;-80
2022/12/09 09:22:00;;;;;;;94.47;29.15;;;3.00;99.90;;;;;;6097409;23;20028;-80
2022/12/09 09:25:15;;;;;;;102.65;33.10;;;2.70;99.90;;;;;;6132817;23;20025;-80
2022/12/09 09:27:59;;;;;;;94.60;31.70;;;-0.80;99.90;;;;;;6121583;23;20029;-80
2022/12/09 09:30:35;;;;;;;94.30;31.90;;;1.70;99.90;;;;;;6156619;23;20044;-80
2022/12/09 09:33:28;;;;;;;92.93;31.90;;;2.00;99.90;;;;;;6123211;23;20032;-80
2022/12/09 09:36:45;;;;;;;;;;;;;;;;;;;;;
2022/12/09 09:39:20;;;;;;;103.30;33.05;;;2.30;99.90;;;;;;6131910;23;20323;-80
2022/12/09 09:41:57;;;;;;;105.18;33.55;;;2.00;99.90;;;;;;6158499;23;20013;-80
2022/12/09 09:45:19;;;;;;;103.07;34.50;;;-0.40;99.90;;;;;;6129245;23;20316;-80
2022/12/09 09:48:01;;;;;;;101.05;32.90;;;1.00;99.90;;;;;;6107471;23;20453;-79
2022/12/09 09:50:47;;;;;;;101.55;34.78;;;2.40;99.90;;;;;;6117212;23;20036;-79
2022/12/09 09:53:25;;;;;;;109.47;36.15;;;0.90;99.90;;;;;;6155957;23;20025;-79
2022/12/09 09:56:50;;;;;;;113.25;34.78;;;3.20;99.90;;;;;;6107970;23;20021;-79
2022/12/09 09:59:32;;;;;;;108.47;35.75;;;1.30;99.90;;;;;;6121967;23;20025;-78
2022/12/09 10:02:33;;;;;;;119.38;36.63;;;3.30;99.90;;;;;;6167569;23;20013;-80
2022/12/09 10:05:26;;;;;;;103.35;34.17;;;1.60;99.90;;;;;;6131141;23;20025;-80
2022/12/09 10:08:31;;;;;;;110.20;33.95;;;1.30;99.90;;;;;;6167623;23;20021;-79
2022/12/09 10:11:30;;;;;;;103.25;33.72;;;1.30;99.90;;;;;;6106494;23;20323;-80
2022/12/09 10:14:58;;;;;;;104.25;33.83;;;1.90;99.90;;;;;;6126854;23;20025;-80
2022/12/09 10:18:03;;;;;;;118.30;33.78;;;1.00;99.90;;;;;;6130866;23;20044;-80
2022/12/09 10:20:33;;;;;;;111.53;34.75;;;2.80;99.90;;;;;;6167558;23;20010;-79
2022/12/09 10:23:15;;;;;;;113.90;35.58;;;2.90;99.90;;;;;;6165928;23;20319;-79
2022/12/09 10:25:58;;;;;;;112.88;35.85;;;3.50;99.90;;;;;;6143100;23;20017;-79
2022/12/09 10:28:40;;;;;;;101.43;35.05;;;1.20;99.90;;;;;;6120214;23;20025;-79
2022/12/09 10:31:17;;;;;;;;;;;1.50;99.90;;;;;;6108722;23;20017;-79
2022/12/09 10:33:53;;;;;;;114.38;34.03;;;1.40;99.90;;;;;;6107728;23;19916;-79
2022/12/09 10:36:31;;;;;;;113.38;35.65;;;3.30;99.90;;;;;;6142735;23;20419;-79
2022/12/09 10:39:40;;;;;;;110.55;35.20;;;3.10;99.90;;;;;;6135291;23;20018;-79
2022/12/09 10:45:17;;;;;;;108.03;35.15;;;3.80;99.90;;;;;;6039343;23;20030;-79
2022/12/09 10:47:59;;;;;;;100.57;34.10;;;3.10;99.90;;;;;;6026730;23;20022;-79
2022/12/09 10:50:35;;;;;;;107.05;34.42;;;3.10;99.90;;;;;;6118834;23;20029;-80
2022/12/09 10:53:34;;;;;;;103.60;35.63;;;1.60;99.90;;;;;;6131759;23;20296;-80
2022/12/09 10:56:06;;;;;;;;;;;3.60;99.90;;;;;;6109505;23;20017;-80
2022/12/09 10:59:20;;;;;;;92.50;32.25;;;1.60;99.90;;;;;;6128431;23;19916;-80
2022/12/09 11:01:58;;;;;;;96.70;33.58;;;1.80;99.90;;;;;;6138218;23;20017;-79
2022/12/09 11:04:47;;;;;;;93.18;32.42;;;1.70;99.90;;;;;;6171786;23;20013;-79
2022/12/09 11:07:29;;;;;;;81.35;30.85;;;1.70;99.90;;;;;;6138107;23;20300;-79
2022/12/09 11:09:58;;;;;;;84.68;31.55;;;3.30;99.90;;;;;;6147479;23;20021;-80
2022/12/09 11:12:38;;;;;;;89.55;30.65;;;1.90;99.90;;;;;;6172938;23;20024;-80
2022/12/09 11:15:28;;;;;;;82.53;30.00;;;2.20;99.90;;;;;;6116015;23;20330;-80
2022/12/09 11:18:04;;;;;;;85.15;30.40;;;1.80;99.90;;;;;;6136700;23;20322;-78
2022/12/09 11:20:39;;;;;;;78.65;29.52;;;1.90;99.90;;;;;;6198211;23;20065;-80
2022/12/09 11:23:16;;;;;;;83.57;29.50;;;3.40;99.90;;;;;;6197368;23;20659;-80
2022/12/09 11:25:55;;;;;;;76.78;27.40;;;0.80;99.90;;;;;;6198629;23;20478;-79
2022/12/09 11:28:26;;;;;;;89.30;32.08;;;3.70;99.90;;;;;;6137695;23;20017;-79
2022/12/09 11:31:01;;;;;;;90.40;32.85;;;3.50;99.90;;;;;;6136504;23;20025;-80
2022/12/09 11:34:12;;;;;;;;;;;;;;;;;;;;;
2022/12/09 11:37:36;;;;;;;;;;;;;;;;;;;;;
2022/12/09 11:48:36;;;;;;;;;;;;;;;;;;;;;
2022/12/09 11:51:33;;;;;;;91.82;31.80;;;3.90;99.90;;;;;;6133166;23;19927;-81
2022/12/09 11:55:01;;;;;;;;;;;3.90;99.90;;;;;;6160146;23;20434;-81
2022/12/09 11:58:23;;;;;;;89.03;32.55;;;2.50;99.90;;;;;;6160591;23;19931;-81
2022/12/09 12:02:36;;;;;;;78.50;30.52;;;4.30;99.90;;;;;;6097936;23;20025;-81
2022/12/09 12:06:40;;;;;;;90.27;32.73;;;2.40;99.90;;;;;;6096795;23;20049;-81
2022/12/09 12:10:23;;;;;;;;;;;;;;;;;;;;;
2022/12/09 12:13:42;;;;;;;98.03;34.38;;;1.80;99.90;;;;;;6040980;23;20022;-81
2022/12/09 12:17:01;;;;;;;99.63;35.22;;;4.40;99.90;;;;;;6074598;23;20022;-81
2022/12/09 12:20:02;;;;;;;;;;;;;;;;;;;;;
2022/12/09 12:23:37;;;;;;;;;;;;;;;;;;;;;
2022/12/09 12:27:05;;;;;;;110.32;36.38;;;2.10;99.90;;;;;;6120939;23;20027;-82
2022/12/09 12:29:58;;;;;;;109.68;37.17;;;2.30;99.90;;;;;;6142743;23;20024;-81
2022/12/09 12:33:27;;;;;;;;;;;;;;;;;;;;;
2022/12/09 12:37:13;;;;;;;;;;;;;;;;;;;;;
2022/12/09 12:40:04;;;;;;;109.65;37.53;;;2.00;99.90;;;;;;6156967;23;20017;-79
2022/12/09 12:46:17;;;;;;;114.85;39.10;;;2.80;99.90;;;;;;6130211;23;20013;-79
2022/12/09 12:49:00;;;;;;;110.97;39.60;;;2.30;99.90;;;;;;6142760;23;20020;-77
2022/12/09 12:51:37;;;;;;;95.07;38.13;;;2.40;99.90;;;;;;6166570;23;20013;-78
2022/12/09 12:54:36;;;;;;;99.85;37.92;;;2.50;99.90;;;;;;6130922;23;20029;-78
2022/12/09 12:57:11;;;;;;;87.03;36.03;;;2.60;99.90;;;;;;6131085;23;20025;-78
2022/12/09 13:00:11;;;;;;;95.78;37.22;;;4.30;99.90;;;;;;6153616;23;20028;-80
2022/12/09 13:04:20;;;;;;;89.95;35.78;;;3.40;99.90;;;;;;6186092;23;20024;-79
2022/12/09 13:07:22;;;;;;;80.45;34.17;;;3.00;99.90;;;;;;6175041;23;20307;-79
2022/12/09 13:10:07;;;;;;;82.97;32.65;;;3.10;99.90;;;;;;6171210;23;20024;-79
2022/12/09 13:13:43;;;;;;;75.72;32.22;;;4.20;99.90;;;;;;6160915;23;20024;-80
2022/12/09 13:16:53;;;;;;;73.60;32.60;;;4.00;99.90;;;;;;6172495;23;20225;-79
2022/12/09 13:20:00;;;;;;;78.63;31.40;;;5.60;99.90;;;;;;6140730;23;20021;-79
2022/12/09 13:22:49;;;;;;;64.63;29.25;;;6.00;99.90;;;;;;6148034;23;20013;-79
2022/12/09 13:25:38;;;;;;;71.43;30.48;;;3.80;99.90;;;;;;6136593;23;20016;-79
2022/12/09 13:28:36;;;;;;;75.30;31.85;;;3.00;99.90;;;;;;6197297;23;20013;-79
2022/12/09 13:31:13;;;;;;;71.70;31.27;;;2.50;99.90;;;;;;6160661;23;20017;-80
2022/12/09 13:34:12;;;;;;;71.72;31.75;;;3.70;99.90;;;;;;6138292;23;20017;-80
2022/12/09 13:36:49;;;;;;;68.20;30.95;;;3.30;99.90;;;;;;6159160;23;20032;-79
2022/12/09 13:39:38;;;;;;;61.97;26.85;;;5.00;99.90;;;;;;6172320;23;20291;-77
2022/12/09 13:45:18;;;;;;;60.00;26.45;;;5.10;99.90;;;;;;6196249;23;20024;-79
2022/12/09 13:47:55;;;;;;;55.50;25.73;;;3.00;99.90;;;;;;6172608;23;20024;-80
2022/12/09 13:50:44;;;;;;;62.42;26.23;;;5.20;99.90;;;;;;6194088;23;20035;-79
2022/12/09 13:53:20;;;;;;;57.75;26.67;;;2.80;99.90;;;;;;6133200;23;20028;-74
2022/12/09 13:55:59;;;;;;;63.20;27.88;;;2.80;99.90;;;;;;6159709;23;20020;-80
2022/12/09 13:58:50;;;;;;;66.22;28.67;;;2.80;99.90;;;;;;6134786;23;20017;-76
2022/12/09 14:01:30;;;;;;;67.63;27.88;;;2.70;99.90;;;;;;6136071;23;20013;-77
2022/12/09 14:04:45;;;;;;;65.80;27.75;;;2.70;99.90;;;;;;6195990;23;20013;-79
2022/12/09 14:08:03;;;;;;;68.10;29.42;;;2.70;99.90;;;;;;6087134;23;20017;-81
2022/12/09 14:10:58;;;;;;;66.03;29.08;;;4.90;99.90;;;;;;6166066;23;20028;-78
2022/12/09 14:13:29;;;;;;;76.18;28.52;;;4.10;99.90;;;;;;6186325;23;20024;-78
2022/12/09 14:16:33;;;;;;;69.72;29.67;;;4.60;99.90;;;;;;6137691;23;20021;-80
2022/12/09 14:19:43;;;;;;;63.60;27.38;;;2.70;99.90;;;;;;6187834;23;20017;-75
2022/12/09 14:22:21;;;;;;;72.30;29.52;;;2.60;99.90;;;;;;6120656;23;20025;-79
2022/12/09 14:24:54;;;;;;;70.93;31.00;;;4.60;99.90;;;;;;6136499;23;20021;-82
2022/12/09 14:28:09;;;;;;;76.40;30.52;;;3.30;99.90;;;;;;6178199;23;20020;-77
2022/12/09 14:30:58;;;;;;;72.45;29.77;;;2.50;99.90;;;;;;6175232;23;20013;-78
2022/12/09 14:33:43;;;;;;;78.22;31.77;;;2.40;99.90;;;;;;6175387;23;20017;-80
2022/12/09 14:36:13;;;;;;;76.07;32.28;;;2.30;99.90;;;;;;6198216;23;20016;-80
2022/12/09 14:39:01;;;;;;;85.47;31.52;;;4.80;99.90;;;;;;6163246;23;20422;-80
2022/12/09 14:42:00;;;;;;;60.78;25.67;;;2.30;99.90;;;;;;6173252;23;20326;-80
2022/12/09 14:44:40;;;;;;;61.80;25.70;;;4.30;99.90;;;;;;6197706;23;20013;-80
2022/12/09 14:47:19;;;;;;;60.17;25.40;;;2.20;99.90;;;;;;6138053;23;20017;-80
2022/12/09 14:49:49;;;;;;;57.33;23.30;;;3.50;99.90;;;;;;6197343;23;20009;-80
2022/12/09 14:52:49;;;;;;;50.38;22.65;;;3.20;99.90;;;;;;6173451;23;20166;-79
2022/12/09 14:55:18;;;;;;;56.72;22.45;;;2.20;99.90;;;;;;6162037;23;20040;-79
2022/12/09 14:57:49;;;;;;;61.50;26.00;;;2.00;99.90;;;;;;6160714;23;20036;-79
2022/12/09 15:00:44;;;;;;;64.60;25.08;;;4.60;99.90;;;;;;6190568;23;20028;-81
2022/12/09 15:03:27;;;;;;;66.47;26.38;;;1.60;99.90;;;;;;6161647;23;20017;-79
2022/12/09 15:06:15;;;;;;;75.68;27.40;;;4.50;99.90;;;;;;6172674;23;20116;-77
2022/12/09 15:08:43;;;;;;;63.50;25.25;;;2.10;99.90;;;;;;6162205;23;20031;-77
2022/12/09 15:11:22;;;;;;;67.60;26.83;;;2.40;99.90;;;;;;6137060;23;20021;-74
2022/12/09 15:13:52;;;;;;;79.05;26.15;;;5.00;99.90;;;;;;6198460;23;20021;-74
2022/12/09 15:20:05;;;;;;;77.40;25.65;;;3.90;99.90;;;;;;6171718;23;20017;-76
2022/12/09 15:22:51;;;;;;;66.35;26.08;;;1.70;99.90;;;;;;6198488;23;20028;-77